createdAt,value
2024-01-29T00:05:04.043Z,102275.60
2024-01-29T00:10:33.326Z,102278.00
2024-01-29T00:15:36.605Z,102291.20
2024-01-29T00:20:39.618Z,102276.60
2024-01-29T00:25:42.860Z,102272.80
2024-01-29T00:30:45.839Z,102266.00
2024-01-29T00:35:49.326Z,102259.20
2024-01-29T00:40:52.335Z,102263.00
2024-01-29T00:45:55.412Z,102260.80
2024-01-29T00:51:04.347Z,102257.40
2024-01-29T00:56:08.170Z,102256.00
2024-01-29T01:01:12.679Z,102241.80
2024-01-29T01:06:15.788Z,102244.80
2024-01-29T01:11:18.696Z,102239.00
2024-01-29T01:16:21.618Z,102232.00
2024-01-29T01:21:24.593Z,102227.40
2024-01-29T01:26:27.485Z,102221.40
2024-01-29T01:31:46.907Z,102227.20
2024-01-29T01:37:06.411Z,102222.80
2024-01-29T01:42:19.050Z,102203.60
2024-01-29T01:47:22.103Z,102213.80
2024-01-29T01:52:25.510Z,102210.60
2024-01-29T01:58:19.683Z,102218.00
2024-01-29T02:03:22.705Z,102227.20
2024-01-29T02:08:25.989Z,102234.60
2024-01-29T02:13:29.018Z,102237.80
2024-01-29T02:18:32.041Z,102230.00
2024-01-29T02:23:35.035Z,102222.40
2024-01-29T02:28:38.081Z,102215.20
2024-01-29T02:33:41.060Z,102207.40
2024-01-29T02:38:44.178Z,102202.20
2024-01-29T02:43:47.171Z,102199.20
2024-01-29T02:48:50.238Z,102193.20
2024-01-29T02:53:53.196Z,102188.20
2024-01-29T02:58:56.154Z,102186.20
2024-01-29T03:03:59.214Z,102185.00
2024-01-29T03:09:02.204Z,102185.20
2024-01-29T03:14:05.274Z,102190.40
2024-01-29T03:19:08.848Z,102179.60
2024-01-29T03:24:12.082Z,102176.80
2024-01-29T03:29:15.075Z,102167.00
2024-01-29T03:34:18.199Z,102155.40
2024-01-29T03:39:21.172Z,102155.40
2024-01-29T03:44:24.058Z,102152.00
2024-01-29T03:49:27.096Z,102150.80
2024-01-29T03:54:30.092Z,102139.40
2024-01-29T03:59:36.271Z,102145.00
2024-01-29T04:04:39.561Z,102138.40
2024-01-29T04:09:42.621Z,102141.80
2024-01-29T04:14:45.658Z,102139.00
2024-01-29T04:19:48.624Z,102136.20
2024-01-29T04:24:51.540Z,102137.40
2024-01-29T04:29:54.600Z,102137.20
2024-01-29T04:34:57.682Z,102139.80
2024-01-29T04:40:00.784Z,102143.00
2024-01-29T04:45:04.718Z,102138.60
2024-01-29T04:50:08.234Z,102131.00
2024-01-29T04:55:11.267Z,102129.20
2024-01-29T05:00:14.296Z,102130.80
2024-01-29T05:05:17.419Z,102122.40
2024-01-29T05:10:21.452Z,102120.80
2024-01-29T05:15:24.415Z,102119.40
2024-01-29T05:20:27.509Z,102106.80
2024-01-29T05:25:30.814Z,102106.00
2024-01-29T05:30:33.867Z,102099.20
2024-01-29T05:35:36.855Z,102088.60
2024-01-29T05:40:39.876Z,102091.80
2024-01-29T05:45:43.392Z,102089.60
2024-01-29T05:50:46.594Z,102097.20
2024-01-29T05:55:49.529Z,102096.80
2024-01-29T06:00:52.511Z,102099.40
2024-01-29T06:05:56.614Z,102109.60
2024-01-29T06:10:59.577Z,102115.80
2024-01-29T06:16:03.388Z,102109.20
2024-01-29T06:21:06.390Z,102107.00
2024-01-29T06:26:10.616Z,102106.60
2024-01-29T06:31:14.556Z,102107.40
2024-01-29T06:36:17.692Z,102115.00
2024-01-29T06:41:26.061Z,102116.60
2024-01-29T06:46:29.142Z,102117.60
2024-01-29T06:51:32.113Z,102123.00
2024-01-29T06:56:35.040Z,102122.40
2024-01-29T07:01:38.951Z,102119.40
2024-01-29T07:06:42.138Z,102125.00
2024-01-29T07:11:45.514Z,102121.20
2024-01-29T07:16:48.610Z,102124.80
2024-01-29T07:21:52.184Z,102129.40
2024-01-29T07:26:55.221Z,102121.20
2024-01-29T07:31:58.529Z,102136.40
2024-01-29T07:37:01.732Z,102138.20
2024-01-29T07:42:05.014Z,102140.80
2024-01-29T07:47:08.435Z,102137.60
2024-01-29T07:52:13.116Z,102136.80
2024-01-29T07:57:16.278Z,102133.60
2024-01-29T08:02:22.198Z,102134.40
2024-01-29T08:07:25.501Z,102137.60
2024-01-29T08:12:29.101Z,102135.60
2024-01-29T08:17:35.437Z,102133.60
2024-01-29T08:22:39.983Z,102135.20
2024-01-29T08:27:42.992Z,102123.80
2024-01-29T08:32:46.325Z,102124.00
2024-01-29T08:37:51.306Z,102123.20
2024-01-29T08:42:55.502Z,102131.00
2024-01-29T08:48:00.065Z,102134.60
2024-01-29T08:53:26.744Z,102141.00
2024-01-29T08:58:35.960Z,102137.40
2024-01-29T09:03:53.619Z,102141.40
2024-01-29T09:08:56.653Z,102142.20
2024-01-29T09:14:01.089Z,102140.40
2024-01-29T09:19:04.229Z,102146.40
2024-01-29T09:24:07.446Z,102150.40
2024-01-29T09:29:10.505Z,102148.80
2024-01-29T09:34:14.297Z,102151.20
2024-01-29T09:39:19.548Z,102152.00
2024-01-29T09:44:23.766Z,102146.80
2024-01-29T09:49:32.738Z,102144.80
2024-01-29T09:54:43.154Z,102149.00
2024-01-29T09:59:46.940Z,102143.00
2024-01-29T10:04:51.311Z,102130.40
2024-01-29T10:09:55.858Z,102115.20
2024-01-29T10:20:40.673Z,102100.20
2024-01-29T10:26:08.280Z,102094.60
2024-01-29T10:31:26.010Z,102085.80
2024-01-29T10:36:33.090Z,102084.80
2024-01-29T10:41:38.475Z,102074.60
2024-01-29T10:46:47.320Z,102068.60
2024-01-29T10:51:55.056Z,102067.00
2024-01-29T10:57:00.256Z,102062.00
2024-01-29T11:02:06.420Z,102058.60
2024-01-29T11:07:27.117Z,102062.60
2024-01-29T11:12:31.794Z,102060.80
2024-01-29T11:17:34.979Z,102048.80
2024-01-29T11:22:40.317Z,102037.40
2024-01-29T11:27:51.287Z,102028.80
2024-01-29T11:32:57.427Z,102028.80
2024-01-29T11:38:09.608Z,102017.40
2024-01-29T11:43:23.643Z,102016.40
2024-01-29T11:48:28.946Z,102013.20
2024-01-29T11:53:32.521Z,102001.00
2024-01-29T11:58:36.615Z,101993.20
2024-01-29T12:03:39.895Z,101990.00
2024-01-29T12:08:50.776Z,101986.00
2024-01-29T12:13:57.379Z,101982.40
2024-01-29T12:19:01.127Z,101985.40
2024-01-29T12:24:04.639Z,101973.60
2024-01-29T12:29:09.825Z,101980.40
2024-01-29T12:34:21.941Z,101963.80
2024-01-29T12:39:28.050Z,101966.80
2024-01-29T12:44:31.125Z,101965.00
2024-01-29T12:49:34.406Z,101974.60
2024-01-29T12:54:38.137Z,101961.60
2024-01-29T12:59:41.230Z,101961.00
2024-01-29T13:04:44.492Z,101957.00
2024-01-29T13:09:47.645Z,101962.80
2024-01-29T13:14:50.885Z,101956.60
2024-01-29T13:19:54.245Z,101949.60
2024-01-29T13:25:01.132Z,101950.20
2024-01-29T13:30:05.188Z,101954.20
2024-01-29T13:35:09.504Z,101950.60
2024-01-29T13:40:12.873Z,101948.20
2024-01-29T13:45:16.399Z,101952.40
2024-01-29T13:50:22.780Z,101955.40
2024-01-29T13:55:28.349Z,101955.80
2024-01-29T14:00:31.504Z,101950.40
2024-01-29T14:05:35.051Z,101951.60
2024-01-29T14:10:38.116Z,101948.60
2024-01-29T14:15:42.007Z,101951.60
2024-01-29T14:20:45.308Z,101953.00
2024-01-29T14:25:48.785Z,101946.20
2024-01-29T14:30:52.089Z,101947.00
2024-01-29T14:35:57.948Z,101939.40
2024-01-29T14:41:01.009Z,101934.20
2024-01-29T14:46:04.361Z,101927.40
2024-01-29T14:51:08.078Z,101926.20
2024-01-29T14:56:11.233Z,101920.00
2024-01-29T15:01:14.324Z,101914.20
2024-01-29T15:06:22.500Z,101914.00
2024-01-29T15:11:28.297Z,101911.20
2024-01-29T15:16:31.472Z,101914.60
2024-01-29T15:21:35.094Z,101907.00
2024-01-29T15:26:38.460Z,101904.20
2024-01-29T15:31:49.025Z,101904.40
2024-01-29T16:08:13.616Z,101905.80
2024-01-29T17:02:37.646Z,101926.40
2024-01-29T17:08:45.455Z,101927.40
2024-01-29T17:14:43.486Z,101934.60
2024-01-29T17:43:40.456Z,101925.40
2024-01-29T17:48:42.776Z,101929.40
2024-01-29T17:53:45.194Z,101920.60
2024-01-29T17:58:46.900Z,101920.40
2024-01-29T18:03:52.066Z,101916.80
2024-01-29T18:08:54.509Z,101912.40
2024-01-29T18:13:56.352Z,101913.20
2024-01-29T18:18:58.523Z,101907.80
2024-01-29T18:24:01.376Z,101906.00
2024-01-29T18:29:03.150Z,101904.40
2024-01-29T18:34:05.133Z,101901.20
2024-01-29T18:39:07.203Z,101898.60
2024-01-29T18:44:09.007Z,101894.00
2024-01-29T18:49:10.836Z,101892.20
2024-01-29T18:54:12.984Z,101896.40
2024-01-29T18:59:14.541Z,101894.40
2024-01-29T19:04:16.284Z,101895.40
2024-01-29T19:09:18.961Z,101896.20
2024-01-29T19:14:23.177Z,101898.40
2024-01-29T19:19:25.422Z,101895.60
2024-01-29T19:24:27.297Z,101900.20
2024-01-29T19:29:30.801Z,101895.60
2024-01-29T19:34:38.397Z,101897.60
2024-01-29T19:39:40.593Z,101900.20
2024-01-29T19:44:42.786Z,101894.60
2024-01-29T19:49:48.308Z,101890.60
2024-01-29T19:54:50.152Z,101874.80
2024-01-29T19:59:51.762Z,101872.40
2024-01-29T20:04:55.406Z,101861.00
2024-01-29T20:09:57.022Z,101853.60
2024-01-29T20:14:58.970Z,101852.00
2024-01-29T20:20:00.794Z,101855.40
2024-01-29T20:25:03.583Z,101863.00
2024-01-29T20:30:06.389Z,101856.60
2024-01-29T20:35:11.148Z,101858.80
2024-01-29T20:40:13.138Z,101853.80
2024-01-29T20:45:15.665Z,101850.60
2024-01-29T20:50:17.297Z,101851.00
2024-01-29T20:55:20.633Z,101858.20
2024-01-29T21:00:22.559Z,101854.80
2024-01-29T21:05:24.258Z,101853.00
2024-01-29T21:10:27.725Z,101850.00
2024-01-29T21:15:32.679Z,101848.60
2024-01-29T21:20:34.569Z,101851.40
2024-01-29T21:25:36.295Z,101841.40
2024-01-29T21:30:37.972Z,101846.80
2024-01-29T21:35:40.501Z,101837.20
2024-01-29T21:40:42.500Z,101835.00
2024-01-29T21:45:45.039Z,101831.20
2024-01-29T21:50:46.829Z,101837.00
2024-01-29T21:55:48.718Z,101832.20
2024-01-29T22:00:50.515Z,101832.00
2024-01-29T22:05:52.171Z,101831.20
2024-01-29T22:10:54.378Z,101825.00
2024-01-29T22:15:58.777Z,101821.00
2024-01-29T22:21:02.822Z,101824.40
2024-01-29T22:26:04.722Z,101824.80
2024-01-29T22:31:07.031Z,101826.40
2024-01-29T22:36:15.634Z,101821.00
2024-01-29T22:41:17.693Z,101823.00
2024-01-29T22:46:19.371Z,101827.40
2024-01-29T22:51:29.564Z,101827.20
2024-01-29T22:56:31.765Z,101820.40
2024-01-29T23:01:33.579Z,101808.20
2024-01-29T23:06:35.211Z,101804.00
2024-01-29T23:11:36.842Z,101798.40
2024-01-29T23:16:39.985Z,101798.20
2024-01-29T23:21:42.268Z,101798.20
2024-01-29T23:26:44.249Z,101793.00
2024-01-29T23:31:45.781Z,101784.60
2024-01-29T23:36:47.345Z,101773.20
2024-01-29T23:41:48.915Z,101773.20
2024-01-29T23:46:50.400Z,101773.80
2024-01-29T23:51:51.952Z,101778.80
2024-01-29T23:56:53.447Z,101784.40
